createdAt,value
2017-11-17T00:00:32.429Z,18.40
2017-11-17T00:03:58.558Z,18.30
2017-11-17T00:07:22.111Z,18.30
2017-11-17T00:10:45.612Z,18.30
2017-11-17T00:14:09.171Z,18.30
2017-11-17T00:17:32.680Z,18.30
2017-11-17T00:20:57.914Z,18.30
2017-11-17T00:24:21.429Z,18.30
2017-11-17T00:27:46.038Z,18.20
2017-11-17T00:31:09.618Z,18.20
2017-11-17T00:34:37.956Z,18.20
2017-11-17T00:38:01.770Z,18.10
2017-11-17T00:41:29.708Z,18.20
2017-11-17T00:44:54.101Z,18.10
2017-11-17T00:48:18.444Z,18.10
2017-11-17T00:51:41.905Z,18.10
2017-11-17T00:55:05.638Z,18.10
2017-11-17T00:58:29.507Z,18.10
2017-11-17T01:01:53.740Z,18.00
2017-11-17T01:05:17.438Z,18.00
2017-11-17T01:08:40.899Z,18.00
2017-11-17T01:12:04.396Z,18.00
2017-11-17T01:15:29.525Z,18.00
2017-11-17T01:18:54.591Z,18.00
2017-11-17T01:22:19.405Z,18.00
2017-11-17T01:25:42.895Z,18.00
2017-11-17T01:29:07.218Z,18.00
2017-11-17T01:32:31.786Z,17.90
2017-11-17T01:35:56.766Z,17.90
2017-11-17T01:39:21.274Z,17.90
2017-11-17T01:42:45.585Z,17.90
2017-11-17T01:46:09.987Z,17.90
2017-11-17T01:49:34.753Z,17.90
2017-11-17T01:52:58.293Z,17.80
2017-11-17T01:56:22.989Z,17.80
2017-11-17T01:59:46.496Z,17.80
2017-11-17T02:03:10.499Z,17.80
2017-11-17T02:06:34.729Z,17.80
2017-11-17T02:09:58.944Z,17.70
2017-11-17T02:13:22.395Z,17.80
2017-11-17T02:16:46.710Z,17.70
2017-11-17T02:20:10.565Z,17.70
2017-11-17T02:23:34.525Z,17.70
2017-11-17T02:26:58.772Z,17.70
2017-11-17T02:30:22.316Z,17.70
2017-11-17T02:33:45.763Z,17.70
2017-11-17T02:37:11.591Z,17.70
2017-11-17T02:40:35.834Z,17.70
2017-11-17T02:43:59.273Z,17.60
2017-11-17T02:47:22.745Z,17.70
2017-11-17T02:50:46.209Z,17.70
2017-11-17T02:54:09.671Z,17.70
2017-11-17T02:57:33.146Z,17.60
2017-11-17T03:00:56.626Z,17.60
2017-11-17T03:04:21.202Z,17.60
2017-11-17T03:07:45.656Z,17.60
2017-11-17T03:11:09.115Z,17.60
2017-11-17T03:14:32.941Z,17.50
2017-11-17T03:17:57.183Z,17.60
2017-11-17T03:21:20.643Z,17.60
2017-11-17T03:24:44.119Z,17.60
2017-11-17T03:28:07.973Z,17.60
2017-11-17T03:31:31.494Z,17.60
2017-11-17T03:34:54.976Z,17.50
2017-11-17T03:38:18.455Z,17.60
2017-11-17T03:41:41.975Z,17.50
2017-11-17T03:45:05.442Z,17.50
2017-11-17T03:48:28.892Z,17.50
2017-11-17T03:51:53.118Z,17.50
2017-11-17T03:55:16.584Z,17.50
2017-11-17T03:58:40.075Z,17.50
2017-11-17T04:02:03.560Z,17.50
2017-11-17T04:05:27.102Z,17.50
2017-11-17T04:08:51.290Z,17.50
2017-11-17T04:12:14.757Z,17.40
2017-11-17T04:15:38.297Z,17.40
2017-11-17T04:19:02.632Z,17.40
2017-11-17T04:22:26.104Z,17.40
2017-11-17T04:25:49.592Z,17.40
2017-11-17T04:29:13.091Z,17.40
2017-11-17T04:32:36.553Z,17.40
2017-11-17T04:36:00.005Z,17.40
2017-11-17T04:39:23.511Z,17.40
2017-11-17T04:42:46.951Z,17.40
2017-11-17T04:46:10.424Z,17.30
2017-11-17T04:49:33.906Z,17.30
2017-11-17T04:52:57.393Z,17.40
2017-11-17T04:56:20.858Z,17.30
2017-11-17T04:59:44.347Z,17.30
2017-11-17T05:03:07.827Z,17.40
2017-11-17T05:06:31.460Z,17.60
2017-11-17T05:09:54.935Z,18.10
2017-11-17T05:13:18.432Z,18.50
2017-11-17T05:16:41.940Z,18.70
2017-11-17T05:20:05.435Z,19.30
2017-11-17T05:23:28.912Z,20.00
2017-11-17T05:26:52.396Z,20.60
2017-11-17T05:30:17.369Z,21.40
2017-11-17T05:33:40.832Z,21.40
2017-11-17T05:37:04.317Z,21.70
2017-11-17T05:40:27.862Z,22.00
2017-11-17T05:43:52.221Z,22.50
2017-11-17T05:47:16.452Z,22.60
2017-11-17T05:50:39.930Z,22.60
2017-11-17T05:54:03.400Z,22.70
2017-11-17T05:57:26.894Z,22.90
2017-11-17T06:00:50.409Z,23.00
2017-11-17T06:04:15.379Z,23.30
2017-11-17T06:07:38.894Z,23.30
2017-11-17T06:11:02.377Z,23.30
2017-11-17T06:14:26.696Z,23.60
2017-11-17T06:17:50.188Z,23.60
2017-11-17T06:21:13.693Z,23.60
2017-11-17T06:24:37.170Z,23.70
2017-11-17T06:28:00.656Z,23.80
2017-11-17T06:31:24.895Z,23.90
2017-11-17T06:34:48.353Z,23.80
2017-11-17T06:38:11.860Z,24.00
2017-11-17T06:41:35.364Z,23.90
2017-11-17T06:44:59.654Z,23.80
2017-11-17T06:48:23.911Z,23.70
2017-11-17T06:51:48.183Z,23.60
2017-11-17T06:55:11.652Z,23.60
2017-11-17T06:58:35.203Z,23.40
2017-11-17T07:01:59.640Z,23.10
2017-11-17T07:05:23.201Z,23.10
2017-11-17T07:08:46.742Z,22.90
2017-11-17T07:12:10.280Z,22.70
2017-11-17T07:15:33.769Z,22.50
2017-11-17T07:18:57.325Z,22.20
2017-11-17T07:22:20.851Z,21.90
2017-11-17T07:25:44.359Z,21.70
2017-11-17T07:29:07.808Z,21.50
2017-11-17T07:32:31.300Z,21.30
2017-11-17T07:35:54.746Z,21.10
2017-11-17T07:39:18.244Z,20.90
2017-11-17T07:42:41.718Z,20.80
2017-11-17T07:46:05.184Z,20.50
2017-11-17T07:49:28.748Z,20.30
2017-11-17T07:52:52.220Z,20.10
2017-11-17T07:56:15.689Z,20.00
2017-11-17T07:59:39.178Z,19.80
2017-11-17T08:03:02.646Z,19.70
2017-11-17T08:06:26.124Z,19.60
2017-11-17T08:09:50.427Z,19.70
2017-11-17T08:13:14.676Z,19.90
2017-11-17T08:16:38.135Z,19.90
2017-11-17T08:20:01.604Z,20.10
2017-11-17T08:23:25.095Z,20.50
2017-11-17T08:26:48.565Z,21.00
2017-11-17T08:30:12.861Z,21.40
2017-11-17T08:33:36.332Z,22.00
2017-11-17T08:36:59.835Z,22.40
2017-11-17T08:40:23.382Z,22.60
2017-11-17T08:43:46.817Z,22.90
2017-11-17T08:47:10.329Z,23.20
2017-11-17T08:50:33.840Z,23.40
2017-11-17T08:53:58.254Z,23.80
2017-11-17T08:57:22.465Z,23.80
2017-11-17T09:00:45.892Z,23.80
2017-11-17T09:04:10.360Z,24.10
2017-11-17T09:07:33.840Z,24.10
2017-11-17T09:10:58.147Z,24.30
2017-11-17T09:14:21.855Z,24.30
2017-11-17T09:17:45.355Z,24.30
2017-11-17T09:21:08.824Z,24.40
2017-11-17T09:24:32.334Z,24.60
2017-11-17T09:27:55.795Z,24.60
2017-11-17T09:31:19.415Z,24.70
2017-11-17T09:34:42.978Z,24.90
2017-11-17T09:38:06.536Z,24.80
2017-11-17T09:41:30.875Z,25.00
2017-11-17T09:44:54.348Z,25.00
2017-11-17T09:48:17.804Z,24.90
2017-11-17T09:51:41.291Z,24.90
2017-11-17T09:55:04.792Z,24.90
2017-11-17T09:58:28.297Z,24.90
2017-11-17T10:01:51.960Z,24.90
2017-11-17T10:05:15.443Z,25.00
2017-11-17T10:08:38.923Z,25.00
2017-11-17T10:12:02.391Z,24.90
2017-11-17T10:15:26.056Z,24.90
2017-11-17T10:18:49.533Z,25.00
2017-11-17T10:22:13.033Z,25.00
2017-11-17T10:25:36.557Z,24.90
2017-11-17T10:29:00.173Z,24.90
2017-11-17T10:32:23.791Z,24.90
2017-11-17T10:35:47.308Z,24.80
2017-11-17T10:39:11.537Z,24.80
2017-11-17T10:42:35.042Z,24.80
2017-11-17T10:45:58.472Z,24.70
2017-11-17T10:49:22.028Z,24.60
2017-11-17T10:52:46.245Z,24.60
2017-11-17T10:56:25.480Z,24.50
2017-11-17T10:59:49.043Z,24.60
2017-11-17T11:03:12.515Z,24.50
2017-11-17T11:06:36.293Z,24.40
2017-11-17T11:09:59.772Z,24.50
2017-11-17T11:13:23.290Z,24.50
2017-11-17T11:16:47.555Z,24.50
2017-11-17T11:20:11.017Z,24.40
2017-11-17T11:23:35.097Z,24.40
2017-11-17T11:26:58.613Z,24.30
2017-11-17T11:30:22.906Z,24.10
2017-11-17T11:33:47.174Z,23.90
2017-11-17T11:37:11.726Z,23.70
2017-11-17T11:40:35.234Z,23.70
2017-11-17T11:43:58.912Z,23.50
2017-11-17T11:47:22.381Z,23.30
2017-11-17T11:50:45.885Z,23.10
2017-11-17T11:54:09.374Z,22.90
2017-11-17T11:57:34.136Z,22.90
2017-11-17T12:00:57.580Z,22.80
2017-11-17T12:04:21.355Z,22.80
2017-11-17T12:07:45.548Z,22.60
2017-11-17T12:11:09.032Z,22.60
2017-11-17T12:14:32.527Z,22.60
2017-11-17T12:17:56.775Z,22.30
2017-11-17T12:21:20.318Z,22.30
2017-11-17T12:24:43.826Z,22.20
2017-11-17T12:28:07.312Z,22.10
2017-11-17T12:31:30.785Z,21.90
2017-11-17T12:34:54.255Z,21.80
2017-11-17T12:38:17.843Z,21.70
2017-11-17T12:41:41.335Z,21.60
2017-11-17T12:45:04.828Z,21.50
2017-11-17T12:48:29.146Z,21.20
2017-11-17T12:51:52.671Z,21.10
2017-11-17T12:55:18.016Z,20.80
2017-11-17T12:58:41.484Z,20.80
2017-11-17T13:02:05.756Z,20.50
2017-11-17T13:05:30.052Z,20.50
2017-11-17T13:08:54.332Z,20.40
2017-11-17T13:12:17.813Z,20.40
2017-11-17T13:15:42.088Z,20.20
2017-11-17T13:19:05.562Z,20.20
2017-11-17T13:22:29.085Z,20.20
2017-11-17T13:25:52.599Z,20.10
2017-11-17T13:29:16.084Z,20.10
2017-11-17T13:32:40.364Z,20.10
2017-11-17T13:36:03.943Z,20.10
2017-11-17T13:39:28.055Z,20.00
2017-11-17T13:42:51.573Z,20.00
2017-11-17T13:46:15.181Z,19.80
2017-11-17T13:49:38.676Z,19.80
2017-11-17T13:53:03.829Z,19.70
2017-11-17T13:56:27.262Z,19.70
2017-11-17T13:59:51.525Z,19.70
2017-11-17T14:03:15.076Z,19.70
2017-11-17T14:06:38.560Z,19.70
2017-11-17T14:10:02.049Z,19.70
2017-11-17T14:13:26.290Z,19.60
2017-11-17T14:16:49.777Z,19.60
2017-11-17T14:20:13.450Z,19.70
2017-11-17T14:23:36.953Z,19.70
2017-11-17T14:27:00.477Z,19.60
2017-11-17T14:30:23.984Z,19.60
2017-11-17T14:33:47.442Z,19.50
2017-11-17T14:37:10.932Z,19.50
2017-11-17T14:40:34.422Z,19.40
2017-11-17T14:43:58.038Z,19.40
2017-11-17T14:47:21.831Z,19.40
2017-11-17T14:50:45.421Z,19.40
2017-11-17T14:54:08.906Z,19.40
2017-11-17T14:57:32.450Z,19.30
2017-11-17T15:00:56.036Z,19.30
2017-11-17T15:04:19.535Z,18.30
2017-11-17T15:07:43.032Z,17.90
2017-11-17T15:11:07.311Z,17.40
2017-11-17T15:14:32.311Z,17.40
2017-11-17T15:17:56.565Z,17.10
2017-11-17T15:21:20.041Z,17.10
2017-11-17T15:24:43.533Z,17.10
2017-11-17T15:28:07.834Z,18.20
2017-11-17T15:31:32.085Z,18.50
2017-11-17T15:34:55.605Z,18.50
2017-11-17T15:38:19.156Z,18.70
2017-11-17T15:41:42.656Z,18.90
2017-11-17T15:45:06.226Z,19.30
2017-11-17T15:48:30.502Z,19.80
2017-11-17T15:51:54.027Z,19.80
2017-11-17T15:55:17.618Z,20.00
2017-11-17T15:58:41.131Z,20.40
2017-11-17T16:02:04.981Z,20.50
2017-11-17T16:05:28.481Z,20.80
2017-11-17T16:08:53.515Z,21.20
2017-11-17T16:12:17.044Z,21.20
2017-11-17T16:15:40.563Z,21.20
2017-11-17T16:19:04.048Z,21.50
2017-11-17T16:22:27.574Z,21.70
2017-11-17T16:25:51.049Z,21.80
2017-11-17T16:29:14.524Z,21.80
2017-11-17T16:32:38.831Z,21.90
2017-11-17T16:36:03.091Z,22.10
2017-11-17T16:39:26.582Z,22.00
2017-11-17T16:42:50.854Z,22.10
2017-11-17T16:46:14.333Z,22.10
2017-11-17T16:49:38.879Z,22.00
2017-11-17T16:53:02.391Z,22.00
2017-11-17T16:56:25.880Z,21.80
2017-11-17T16:59:50.318Z,21.70
2017-11-17T17:03:13.864Z,21.70
2017-11-17T17:06:38.140Z,21.40
2017-11-17T17:10:01.852Z,21.30
2017-11-17T17:13:25.340Z,21.30
2017-11-17T17:16:48.951Z,21.50
2017-11-17T17:20:12.440Z,21.50
2017-11-17T17:23:36.717Z,21.40
2017-11-17T17:27:00.276Z,21.40
2017-11-17T17:30:23.815Z,21.40
2017-11-17T17:33:47.337Z,21.60
2017-11-17T17:37:10.907Z,21.50
2017-11-17T17:40:35.037Z,21.50
2017-11-17T17:43:58.554Z,21.50
2017-11-17T17:47:22.081Z,21.60
2017-11-17T17:50:46.370Z,21.70
2017-11-17T17:54:09.875Z,21.60
2017-11-17T17:57:33.702Z,21.60
2017-11-17T18:00:57.176Z,21.60
2017-11-17T18:04:20.649Z,21.70
2017-11-17T18:07:44.958Z,21.70
2017-11-17T18:11:08.481Z,21.80
2017-11-17T18:14:31.986Z,21.70
2017-11-17T18:17:56.235Z,21.80
2017-11-17T18:21:19.870Z,21.80
2017-11-17T18:24:43.371Z,21.90
2017-11-17T18:28:06.889Z,21.90
2017-11-17T18:31:30.396Z,21.80
2017-11-17T18:34:54.025Z,21.80
2017-11-17T18:38:17.755Z,21.70
2017-11-17T18:41:41.846Z,21.60
2017-11-17T18:45:06.071Z,21.20
2017-11-17T18:48:29.605Z,21.20
2017-11-17T18:51:53.149Z,21.10
2017-11-17T18:55:16.702Z,21.00
2017-11-17T18:58:41.083Z,21.20
2017-11-17T19:02:06.152Z,21.30
2017-11-17T19:05:30.378Z,21.30
2017-11-17T19:08:53.937Z,21.20
2017-11-17T19:12:17.510Z,21.30
2017-11-17T19:15:40.957Z,21.40
2017-11-17T19:19:04.456Z,21.40
2017-11-17T19:22:28.032Z,21.50
2017-11-17T19:25:51.575Z,21.50
2017-11-17T19:29:15.111Z,21.40
2017-11-17T19:32:38.627Z,21.50
2017-11-17T19:36:02.138Z,21.50
2017-11-17T19:39:25.783Z,21.50
2017-11-17T19:42:49.256Z,21.50
2017-11-17T19:46:12.775Z,21.40
2017-11-17T19:49:36.331Z,21.30
2017-11-17T19:52:59.874Z,21.20
2017-11-17T19:56:23.447Z,21.10
2017-11-17T19:59:47.079Z,20.90
2017-11-17T20:03:10.650Z,20.80
2017-11-17T20:06:34.251Z,21.00
2017-11-17T20:09:58.551Z,21.10
2017-11-17T20:13:22.284Z,21.10
2017-11-17T20:16:45.777Z,21.10
2017-11-17T20:20:09.253Z,21.10
2017-11-17T20:23:33.669Z,21.30
2017-11-17T20:26:57.198Z,21.30
2017-11-17T20:30:22.345Z,21.30
2017-11-17T20:33:46.582Z,21.30
2017-11-17T20:37:10.221Z,21.30
2017-11-17T20:40:33.817Z,21.50
2017-11-17T20:43:57.339Z,21.50
2017-11-17T20:47:20.849Z,21.50
2017-11-17T20:50:45.529Z,21.50
2017-11-17T20:54:09.787Z,21.70
2017-11-17T20:57:33.325Z,21.70
2017-11-17T21:00:56.951Z,21.70
2017-11-17T21:04:21.340Z,21.60
2017-11-17T21:07:44.988Z,21.60
2017-11-17T21:11:08.480Z,21.60
2017-11-17T21:14:31.977Z,21.40
2017-11-17T21:17:55.524Z,21.30
2017-11-17T21:21:19.159Z,21.20
2017-11-17T21:24:42.660Z,21.10
2017-11-17T21:28:06.203Z,20.90
2017-11-17T21:31:29.695Z,20.70
2017-11-17T21:34:53.132Z,20.50
2017-11-17T21:38:16.733Z,20.30
2017-11-17T21:41:40.211Z,20.10
2017-11-17T21:45:03.801Z,19.90
2017-11-17T21:48:27.714Z,19.70
2017-11-17T21:51:51.978Z,19.60
2017-11-17T21:55:16.332Z,19.50
2017-11-17T21:58:39.816Z,19.50
2017-11-17T22:02:03.361Z,19.40
2017-11-17T22:05:26.841Z,19.30
2017-11-17T22:08:50.407Z,19.20
2017-11-17T22:12:14.665Z,19.00
2017-11-17T22:15:38.392Z,19.00
2017-11-17T22:19:01.880Z,18.90
2017-11-17T22:22:25.443Z,18.90
2017-11-17T22:25:49.009Z,18.70
2017-11-17T22:29:12.469Z,18.70
2017-11-17T22:32:35.981Z,18.60
2017-11-17T22:35:59.475Z,18.50
2017-11-17T22:39:23.838Z,18.50
2017-11-17T22:42:47.364Z,18.40
2017-11-17T22:46:10.947Z,18.40
2017-11-17T22:49:34.432Z,18.30
2017-11-17T22:52:58.093Z,18.30
2017-11-17T22:56:21.560Z,18.30
2017-11-17T22:59:45.040Z,18.20
2017-11-17T23:03:08.837Z,18.10
2017-11-17T23:06:32.314Z,18.10
2017-11-17T23:09:55.801Z,18.10
2017-11-17T23:13:19.281Z,18.10
2017-11-17T23:16:42.764Z,18.00
2017-11-17T23:20:06.382Z,18.00
2017-11-17T23:23:29.857Z,18.00
2017-11-17T23:26:53.343Z,18.00
2017-11-17T23:30:16.905Z,18.00
2017-11-17T23:33:40.406Z,17.90
2017-11-17T23:37:03.895Z,17.90
2017-11-17T23:40:27.366Z,17.90
2017-11-17T23:43:50.839Z,17.80
2017-11-17T23:47:14.309Z,17.80
2017-11-17T23:50:37.823Z,17.80
2017-11-17T23:54:01.304Z,17.80
2017-11-17T23:57:24.863Z,17.80
